WEATHER DATA

TODAY
Time Temp. Dewp. Hum. Bar. 1h Prec. 24h Prec.
00:10 11.2 3.5 59 1020 0.0000 0.0000
00:20 11.1 3.6 60 1019.9 0.0000 0.0000
00:30 10.8 3.4 60 1019.8 0.0000 0.0000
00:39 10.6 3.4 61 1019.8 0.0000 0.0000
00:50 10.4 3.4 62 1019.7 0.0000 0.0000
01:00 10.3 3.3 62 1019.7 0.0000 0.0000
01:15 9.9 3.2 63 1019.6 0.0000 0.0000
01:25 9.8 3.3 64 1019.5 0.0000 0.0000
01:35 9.6 3.1 64 1019.5 0.0000 0.0000
01:45 9.5 3.3 65 1019.5 0.0000 0.0000
01:55 9.4 3.2 65 1019.3 0.0000 0.0000
02:05 9.3 3.1 65 1019.2 0.0000 0.0000
02:12 9.2 3.2 66 1019.2 0.0000 0.0000
02:21 9 3 66 1019.2 0.0000 0.0000
02:31 8.9 2.9 66 1019.2 0.0000 0.0000
02:42 8.8 3 67 1019.2 0.0000 0.0000
02:52 8.6 2.8 67 1019.2 0.0000 0.0000
03:02 8.5 2.9 68 1019 0.0000 0.0000
03:12 8.4 2.8 68 1019 0.0000 0.0000
03:22 8.3 2.7 68 1018.8 0.0000 0.0000
03:32 8.2 2.9 69 1018.7 0.0000 0.0000
03:42 8.1 2.8 69 1018.6 0.0000 0.0000
03:52 7.9 2.6 69 1018.6 0.0000 0.0000
04:02 7.8 2.7 70 1018.6 0.0000 0.0000
04:12 7.8 2.7 70 1018.6 0.0000 0.0000
04:26 7.7 2.8 71 1018.6 0.0000 0.0000
04:36 7.7 2.8 71 1018.6 0.0000 0.0000
04:46 7.7 2.8 71 1018.6 0.0000 0.0000
04:56 7.7 2.8 71 1018.5 0.0000 0.0000
05:06 7.7 3 72 1018.5 0.0000 0.0000
05:16 7.5 2.8 72 1018.5 0.0000 0.0000
05:26 7.5 2.8 72 1018.5 0.0000 0.0000
05:36 7.4 2.7 72 1018.5 0.0000 0.0000
05:46 7.3 2.8 73 1018.5 0.0000 0.0000
05:56 7.3 2.8 73 1018.5 0.0000 0.0000
06:07 7.3 2.8 73 1018.6 0.0000 0.0000
06:16 7.2 2.9 74 1018.5 0.0000 0.0000
06:26 7.1 2.8 74 1018.6 0.0000 0.0000
06:37 7.1 2.8 74 1018.7 0.0000 0.0000
06:47 7 2.7 74 1018.6 0.0000 0.0000
06:57 7 2.7 74 1018.7 0.0000 0.0000
07:06 7 2.9 75 1018.7 0.0000 0.0000
07:17 6.9 2.8 75 1018.7 0.0000 0.0000
07:27 6.9 2.8 75 1018.7 0.0000 0.0000
07:37 6.9 2.8 75 1018.7 0.0000 0.0000
07:48 7.1 3.2 76 1018.8 0.0000 0.0000
07:57 7.2 3.3 76 1018.8 0.0000 0.0000
08:07 7.5 3.5 76 1018.8 0.0000 0.0000
08:17 7.9 3.9 76 1018.7 0.0000 0.0000
08:28 8.2 4.2 76 1018.8 0.0000 0.0000
08:37 8.6 4.6 76 1018.7 0.0000 0.0000
08:47 9 5 76 1018.8 0.0000 0.0000
08:58 9.4 5.2 75 1018.9 0.0000 0.0000
09:08 9.8 5.6 75 1018.9 0.0000 0.0000
09:18 10.2 5.8 74 1018.9 0.0000 0.0000
09:27 10.5 6.1 74 1018.8 0.0000 0.0000
09:38 10.9 6.3 73 1018.9 0.0000 0.0000
09:48 11.4 6.7 73 1018.8 0.0000 0.0000
09:58 11.8 6.9 72 1018.7 0.0000 0.0000
10:08 12.3 7.4 72 1018.6 0.0000 0.0000
10:18 12.9 7.8 71 1018.5 0.0000 0.0000
10:28 13.4 8.3 71 1018.4 0.0000 0.0000
10:38 13.8 8.4 70 1018.4 0.0000 0.0000
10:48 14.2 8.6 69 1018.4 0.0000 0.0000
10:59 14.7 8.9 68 1018.4 0.0000 0.0000
11:09 15.2 9.1 67 1018.3 0.0000 0.0000

DAY STATISTIC

2019-09-21
TEMPERATURE
AVERAGE
9.1
HIGH
15.2
11:09
LOW
6.9
07:17
PRESSURE
AVERAGE
1018.9
HIGH
1020.0
00:10
LOW
1018.3
11:09
DEWPOINT
AVERAGE
4.0
HIGH
9.1
11:09
LOW
2.6
03:52
HUMIDITY
AVERAGE
70
HIGH
76
07:48
LOW
59
00:10
PRECIPITATION
RAIN HOUR
0.0
RAIN DAY
0.0
TEMPERATURE (°C)
LOW
6.9
HIGH
15.2
AVERAGE
9.1
PRESSURE (hpa)
LOW
1018.3
HIGH
1020.0
AVERAGE
1018.9
DEVICE